»·PEaware :: N653AW KLGB-KFAT

N653AW :: KLGB-KFAT

FLIGHT INFORMATION

Flight Status: Arrived
Operator: Privately registered:
United States
More flights under this callsign
Pilot: Sergei F. (8485)
Aircraft: AIRBUS A320
(A320)
More flights by this aircraft type
Origin: KLGB Long Beach
United States
Destination: KFAT Fresno Yosemite Intl
United States
More flights between these airports :: More routes between these airports
Route: +TOPMM4 CSTRO TTE ALTTA8
File this flight plan on PilotEdge
Remarks:
Altitude:
(Current/Filed)
24,000ft
Speed:
(Current/Filed)
400kts
Departed: 13-Sep-19 07:28 PM
Arrived: 13-Sep-19 08:11 PM
Distance/Time
Traveled:
193nm/0:43
Distance/Time
To Go:
Arrived

Flight Plot

Page will automatically refresh every two minutes.

Flight plan parsing failed; only flown route is shown


Map Options




Map Legend


Flown Route
Filed Route
Departure Airport
Arrival Airport
Navaid (VOR, NDB)
Fix

Horizontal Profiles

Position Reports

Time Latitude Longitude Heading Altitude Ground
Speed
13-Sep-19 19:02 33.819009 -118.146237 134 41ft 0kts
13-Sep-19 19:03 33.819009 -118.146237 134 41ft 0kts
13-Sep-19 19:04 33.819009 -118.146237 134 41ft 0kts
13-Sep-19 19:05 33.819009 -118.146237 134 41ft 0kts
13-Sep-19 19:06 33.819009 -118.146237 134 41ft 0kts
13-Sep-19 19:07 33.819009 -118.146237 134 41ft 0kts
13-Sep-19 19:08 33.819009 -118.146237 134 41ft 0kts
13-Sep-19 19:09 33.819009 -118.146237 134 41ft 0kts
13-Sep-19 19:10 33.819009 -118.146237 134 41ft 0kts
13-Sep-19 19:11 33.819009 -118.146237 134 41ft 0kts
13-Sep-19 19:12 33.819009 -118.146237 134 41ft 0kts
13-Sep-19 19:13 33.819009 -118.146237 134 41ft 0kts
13-Sep-19 19:14 33.819009 -118.146237 134 41ft 0kts
13-Sep-19 19:15 33.819009 -118.146238 134 41ft 0kts
13-Sep-19 19:16 33.819009 -118.146238 134 41ft 0kts
13-Sep-19 19:17 33.819123 -118.146709 87 42ft 2kts
13-Sep-19 19:18 33.819369 -118.146996 181 43ft 0kts
13-Sep-19 19:19 33.819369 -118.146996 181 43ft 0kts
13-Sep-19 19:20 33.819369 -118.146996 181 43ft 0kts
13-Sep-19 19:21 33.819089 -118.146999 179 43ft 7kts
13-Sep-19 19:22 33.816234 -118.147002 180 42ft 10kts
13-Sep-19 19:23 33.813777 -118.144631 135 36ft 16kts
13-Sep-19 19:24 33.810594 -118.140778 135 32ft 13kts
13-Sep-19 19:25 33.808123 -118.137787 134 31ft 8kts
13-Sep-19 19:26 33.807024 -118.138284 276 32ft 5kts
13-Sep-19 19:27 33.810160 -118.142127 314 34ft 93kts
13-Sep-19 19:28 33.838609 -118.175841 313 2116ft 185kts
13-Sep-19 19:29 33.860270 -118.236172 278 3028ft 258kts
13-Sep-19 19:30 33.874994 -118.314995 281 3766ft 255kts
13-Sep-19 19:31 33.889696 -118.390561 281 5653ft 255kts
13-Sep-19 19:32 33.929164 -118.463453 327 6022ft 269kts
13-Sep-19 19:33 33.999658 -118.508143 335 6018ft 282kts
13-Sep-19 19:34 34.079545 -118.546551 336 6018ft 289kts
13-Sep-19 19:35 34.151136 -118.574774 344 6292ft 263kts
13-Sep-19 19:36 34.214776 -118.597626 341 7576ft 277kts
13-Sep-19 19:37 34.286154 -118.623316 338 10775ft 296kts
13-Sep-19 19:38 34.376138 -118.656042 338 11919ft 372kts
13-Sep-19 19:39 34.478697 -118.684315 345 13973ft 396kts
13-Sep-19 19:40 34.587993 -118.705660 345 16041ft 408kts
13-Sep-19 19:41 34.701004 -118.727942 343 17861ft 419kts
13-Sep-19 19:42 34.803046 -118.788577 325 19544ft 417kts
13-Sep-19 19:43 34.902808 -118.857224 325 21053ft 426kts
13-Sep-19 19:44 35.004271 -118.927037 325 22329ft 437kts
13-Sep-19 19:45 35.107114 -118.998147 325 23608ft 443kts
13-Sep-19 19:46 35.208359 -119.068351 325 23957ft 452kts
13-Sep-19 19:47 35.317381 -119.144151 325 23961ft 453kts
13-Sep-19 19:48 35.407209 -119.199348 342 23980ft 469kts
13-Sep-19 19:49 35.537772 -119.193806 19 23900ft 468kts
13-Sep-19 19:50 35.657821 -119.138786 20 21103ft 460kts
13-Sep-19 19:51 35.774046 -119.085193 20 18691ft 441kts
13-Sep-19 19:52 35.885718 -119.033861 16 16306ft 421kts
13-Sep-19 19:53 35.993954 -119.058796 338 14151ft 394kts
13-Sep-19 19:54 36.087762 -119.103934 338 13982ft 345kts
13-Sep-19 19:55 36.172439 -119.144337 338 12452ft 331kts
13-Sep-19 19:56 36.251865 -119.182333 338 11542ft 295kts
13-Sep-19 19:57 36.324040 -119.216925 338 9490ft 279kts
13-Sep-19 19:58 36.392399 -119.249722 338 7635ft 261kts
13-Sep-19 19:59 36.456917 -119.280758 338 5991ft 246kts
13-Sep-19 20:00 36.518083 -119.310212 338 5024ft 229kts
13-Sep-19 20:01 36.566620 -119.345166 304 4700ft 203kts
13-Sep-19 20:02 36.597659 -119.401373 305 4092ft 192kts
13-Sep-19 20:03 36.626725 -119.452860 303 3497ft 179kts
13-Sep-19 20:04 36.654822 -119.502851 304 3220ft 177kts
13-Sep-19 20:05 36.682797 -119.552476 305 3142ft 177kts
13-Sep-19 20:06 36.710625 -119.600692 305 2299ft 174kts
13-Sep-19 20:07 36.734961 -119.644219 305 1375ft 138kts
13-Sep-19 20:09 36.754723 -119.678779 305 822ft 136kts
13-Sep-19 20:10 36.774496 -119.713427 305 336ft 97kts
13-Sep-19 20:11 36.779995 -119.723070 305 337ft 11kts
13-Sep-19 20:12 36.778271 -119.725361 214 337ft 12kts
13-Sep-19 20:13 36.776549 -119.725270 125 335ft 13kts
13-Sep-19 20:14 36.773996 -119.720793 125 334ft 17kts
13-Sep-19 20:15 36.772139 -119.719490 152 334ft 3kts
13-Sep-19 20:16 36.771831 -119.719009 125 334ft 0kts
13-Sep-19 20:17 36.771831 -119.719009 125 334ft 0kts
13-Sep-19 20:18 36.771831 -119.719009 125 334ft 0kts

Navigation Log

Ident Type
Flight plan parsing failed, navigation log unavailable